Eindhoven, Netherlands

8:05 AM CEST on April 26, 2018 (GMT +0200)
Eindhoven Air Base

Weather History for EHEH - February, 2013

Change the Weather History Date:

Wednesday, February 13, 2013

  Actual Average Record
Temperature  
Mean Temperature 31 °F -  
Max Temperature 36 °F 46 °F 60 °F (1998)
Min Temperature 26 °F 33 °F 14 °F (1999)
Degree Days  
Heating Degree Days 34    
Moisture  
Dew Point 26 °F    
Average Humidity 81    
Maximum Humidity 100    
Minimum Humidity 52    
Precipitation  
Precipitation 0.00 in - - ()
Sea Level Pressure  
Sea Level Pressure 30.23 in    
Wind  
Wind Speed 4 mph ()    
Max Wind Speed 7 mph    
Max Gust Speed -    
Visibility 4.6 miles    
Events      
Averages and records for this station are not official NWS values.
T = Trace of Precipitation, MM = Missing Value Source: Averaged Metar Reports

Daily Weather History Graph

Daily Weather History Graph

Search for Another Location

Airport or City:

Astronomy

Feb. 13, 2013 Rise Set
Actual Time 7:55 AM CET 5:50 PM CET
Civil Twilight 7:21 AM CET 6:24 PM CET
Nautical Twilight 6:41 AM CET 7:04 PM CET
Astronomical Twilight 6:03 AM CET 7:42 PM CET
Moon 8:46 AM CET (2/13) 10:10 PM CET (2/13)
Length of Visible Light 11h 03m
Length of Day
9h 54m
Waxing Crescent, 12% of the Moon is Illuminated
Feb 13
Waxing Crescent
Feb 17
First Quarter
Feb 25
Full
Mar 4
Last Quarter
Mar 11
New

Hourly Weather History & Observations

Time (CET) Temp. Windchill Dew Point Humidity Pressure Visibility Wind Dir Wind Speed Gust Speed Precip Events Conditions
12:25 AM 30.2 °F 26.7 °F 24.8 °F 80% 30.12 in 4.3 mi NW 3.5 mph - N/A   Haze
12:55 AM 30.2 °F 25.4 °F 24.8 °F 80% 30.12 in 4.3 mi NNW 4.6 mph - N/A   Haze
1:00 AM 30 °F - 24 °F 71% 30.14 in 4 mi NNW 4.5 mph - -   Light Haze
1:25 AM 28.4 °F - 24.8 °F 86% 30.12 in 4.3 mi North 2.3 mph - N/A   Haze
1:55 AM 28.4 °F - 24.8 °F 86% 30.12 in 3.7 mi NNE 2.3 mph - N/A   Overcast
2:25 AM 28.4 °F - 24.8 °F 86% 30.12 in 3.7 mi North 2.3 mph - N/A   Overcast
2:55 AM 28.4 °F - 24.8 °F 86% 30.12 in 3.7 mi NE 2.3 mph - N/A   Overcast
3:25 AM 30.2 °F 26.7 °F 26.6 °F 86% 30.15 in 3.7 mi NNE 3.5 mph - N/A   Overcast
3:55 AM 30.2 °F 25.4 °F 28.4 °F 93% 30.15 in 3.7 mi NE 4.6 mph - N/A   Overcast
4:00 AM 30 °F - 28 °F 88% 30.17 in 4 mi NE 4.5 mph - -   Mist
4:25 AM 30.2 °F 26.7 °F 28.4 °F 93% 30.15 in 3.1 mi NNE 3.5 mph - N/A   Overcast
4:55 AM 30.2 °F - 28.4 °F 93% 30.15 in 3.7 mi NNW 2.3 mph - N/A   Overcast
5:02 AM 30.2 °F - 28.4 °F 93% 30.15 in 3.7 mi NNW 2.3 mph - N/A   Mostly Cloudy
5:11 AM 30.2 °F - 28.4 °F 93% 30.15 in 3.1 mi NNW 2.3 mph - N/A   Mostly Cloudy
5:12 AM 30.2 °F - 28.4 °F 93% 30.15 in 3.1 mi NNW 2.3 mph - N/A   Mostly Cloudy
5:25 AM 30.2 °F - 28.4 °F 93% 30.15 in 3.1 mi NNW 2.3 mph - N/A   Overcast
5:50 AM 30.2 °F - 28.4 °F 93% 30.18 in 3.1 mi North 2.3 mph - N/A   Overcast
5:55 AM 30.2 °F 26.7 °F 28.4 °F 93% 30.18 in 3.1 mi North 3.5 mph - N/A   Overcast
5:59 AM 28.4 °F 24.6 °F 28.4 °F 100% 30.18 in 3.1 mi NNE 3.5 mph - N/A   Overcast
6:04 AM 28.4 °F 24.6 °F 28.4 °F 100% 30.18 in 3.1 mi NNE 3.5 mph - N/A   Overcast
6:10 AM 28.4 °F 23.3 °F 28.4 °F 100% 30.18 in 3.1 mi NNE 4.6 mph - N/A   Overcast
6:11 AM 28.4 °F 23.3 °F 28.4 °F 100% 30.18 in 3.1 mi NNE 4.6 mph - N/A   Overcast
6:25 AM 30.2 °F 25.4 °F 28.4 °F 93% 30.18 in 3.1 mi NE 4.6 mph - N/A   Overcast
6:31 AM 30.2 °F 25.4 °F 28.4 °F 93% 30.18 in 3.1 mi NE 4.6 mph - N/A   Overcast
6:55 AM 30.2 °F 25.4 °F 28.4 °F 93% 30.18 in 3.7 mi NNE 4.6 mph - N/A   Overcast
7:00 AM 31 °F - 29 °F 88% 30.22 in 4 mi NNE 4.5 mph - -   Mist
7:25 AM 30.2 °F 23.4 °F 28.4 °F 93% 30.21 in 5.0 mi NE 6.9 mph - N/A   Overcast
7:55 AM 30.2 °F 25.4 °F 28.4 °F 93% 30.21 in 5.6 mi NE 4.6 mph - N/A   Overcast
8:00 AM 30.2 °F 25.4 °F 28.4 °F 93% 30.21 in 3.1 mi NNE 4.6 mph - N/A   Overcast
8:01 AM 30.2 °F 25.4 °F 28.4 °F 93% 30.21 in 3.1 mi NNE 4.6 mph - N/A   Overcast
8:13 AM 30.2 °F 25.4 °F 28.4 °F 93% 30.21 in 5.0 mi NE 4.6 mph - N/A   Overcast
8:19 AM 30.2 °F 25.4 °F 28.4 °F 93% 30.21 in 5.0 mi NE 4.6 mph - N/A   Overcast
8:25 AM 30.2 °F 24.3 °F 28.4 °F 93% 30.21 in 5.0 mi NE 5.8 mph - N/A   Overcast
8:29 AM 30.2 °F 24.3 °F 28.4 °F 93% 30.21 in 5.6 mi NE 5.8 mph - N/A   Mostly Cloudy
8:55 AM 32.0 °F 27.5 °F 28.4 °F 87% 30.24 in 5.6 mi NNE 4.6 mph - N/A   Overcast
9:01 AM 32.0 °F 27.5 °F 28.4 °F 87% 30.24 in 5.6 mi NNE 4.6 mph - N/A   Overcast
9:02 AM 32.0 °F 27.5 °F 28.4 °F 87% 30.24 in 5.6 mi NNE 4.6 mph - N/A   Overcast
9:25 AM 30.2 °F 24.3 °F 28.4 °F 93% 30.24 in 5.6 mi NE 5.8 mph - N/A   Scattered Clouds
9:28 AM 32.0 °F 26.4 °F 28.4 °F 87% 30.24 in 5.6 mi ENE 5.8 mph - N/A   Partly Cloudy
9:45 AM 32.0 °F 27.5 °F 28.4 °F 87% 30.24 in 6.2 mi East 4.6 mph - N/A   Scattered Clouds
9:55 AM 32.0 °F 27.5 °F 28.4 °F 87% 30.24 in 6.2 mi East 4.6 mph - N/A   Scattered Clouds
9:59 AM 32.0 °F 27.5 °F 28.4 °F 87% 30.24 in 6.2 mi East 4.6 mph - N/A   Mostly Cloudy
10:00 AM 31 °F - 28 °F 84% 30.27 in 6 mi East 4.5 mph - -   Mostly Cloudy
10:25 AM 32.0 °F 27.5 °F 28.4 °F 87% 30.24 in 5.6 mi East 4.6 mph - N/A   Overcast
10:44 AM 32.0 °F 26.4 °F 28.4 °F 87% 30.24 in 5.6 mi East 5.8 mph - N/A   Scattered Clouds
10:47 AM 32.0 °F 27.5 °F 28.4 °F 87% 30.24 in 5.6 mi East 4.6 mph - N/A   Partly Cloudy
10:48 AM 33.8 °F 29.6 °F 28.4 °F 81% 30.24 in 5.6 mi East 4.6 mph - N/A   Scattered Clouds
10:55 AM 33.8 °F 29.6 °F 28.4 °F 81% 30.27 in 5.6 mi East 4.6 mph - N/A   Mostly Cloudy
11:20 AM 33.8 °F 28.6 °F 28.4 °F 81% 30.27 in 6.2 mi East 5.8 mph - N/A   Scattered Clouds
11:25 AM 33.8 °F 28.6 °F 28.4 °F 81% 30.27 in 6.2 mi East 5.8 mph - N/A   Partly Cloudy
11:39 AM 33.8 °F 29.6 °F 28.4 °F 81% 30.27 in 6.2 mi East 4.6 mph - N/A   Mostly Cloudy
11:43 AM 33.8 °F 30.8 °F 28.4 °F 81% 30.27 in 6.2 mi East 3.5 mph - N/A   Mostly Cloudy
11:55 AM 33.8 °F 29.6 °F 26.6 °F 75% 30.27 in 6.2 mi East 4.6 mph - N/A   Mostly Cloudy
11:56 AM 33.8 °F 28.6 °F 26.6 °F 75% 30.27 in 6.2 mi East 5.8 mph - N/A   Mostly Cloudy
12:05 PM 33.8 °F 28.6 °F 26.6 °F 75% 30.27 in 6.2 mi East 5.8 mph - N/A   Mostly Cloudy
12:09 PM 33.8 °F 28.6 °F 26.6 °F 75% 30.27 in 6.2 mi East 5.8 mph - N/A   Mostly Cloudy
12:10 PM 33.8 °F 29.6 °F 26.6 °F 75% 30.27 in 6.2 mi East 4.6 mph - N/A   Mostly Cloudy
12:25 PM 35.6 °F 31.7 °F 26.6 °F 70% 30.27 in 6.2 mi ENE 4.6 mph - N/A   Overcast
12:55 PM 35.6 °F 30.7 °F 28.4 °F 75% 30.27 in 6.2 mi ENE 5.8 mph - N/A   Overcast
1:00 PM 35 °F - 26 °F 60% 30.29 in 6 mi ENE 6.7 mph - -   Partly Cloudy
1:05 PM 35.6 °F 29.9 °F 26.6 °F 70% 30.27 in 6.2 mi ENE 6.9 mph - N/A   Overcast
1:11 PM 35.6 °F 30.7 °F 26.6 °F 70% 30.27 in 6.2 mi ENE 5.8 mph - N/A   Overcast
1:25 PM 35.6 °F 31.7 °F 26.6 °F 70% 30.27 in 6.2 mi East 4.6 mph - N/A   Overcast
1:27 PM 35.6 °F 31.7 °F 26.6 °F 70% 30.27 in 6.2 mi East 4.6 mph - N/A   Mostly Cloudy
1:55 PM 33.8 °F 28.6 °F 26.6 °F 75% 30.27 in 6.2 mi East 5.8 mph - N/A   Overcast
2:19 PM 35.6 °F - 26.6 °F 70% 30.27 in 6.2 mi East 2.3 mph - N/A   Overcast
2:25 PM 35.6 °F - 26.6 °F 70% 30.27 in 5.0 mi East 2.3 mph - N/A   Haze
2:35 PM 35.6 °F - 26.6 °F 70% 30.27 in 6.2 mi NE 2.3 mph - N/A   Overcast
2:36 PM 35.6 °F - 26.6 °F 70% 30.27 in 6.2 mi NE 2.3 mph - N/A   Overcast
2:37 PM 35.6 °F - 26.6 °F 70% 30.27 in 6.2 mi ENE 2.3 mph - N/A   Overcast
2:55 PM 35.6 °F 31.7 °F 24.8 °F 65% 30.27 in 5.6 mi SSE 4.6 mph - N/A   Haze
3:25 PM 37.4 °F 34.9 °F 24.8 °F 60% 30.27 in 5.6 mi SSE 3.5 mph - N/A   Haze
3:55 PM 35.6 °F 30.7 °F 24.8 °F 65% 30.27 in 5.6 mi ESE 5.8 mph - N/A   Haze
4:00 PM 35 °F - 24 °F 52% 30.29 in 5 mi ESE 4.5 mph - -   Light Haze
4:25 PM 35.6 °F 30.7 °F 23.0 °F 60% 30.27 in 5.0 mi SE 5.8 mph - N/A   Haze
4:38 PM 33.8 °F 29.6 °F 23.0 °F 65% 30.27 in 4.3 mi SE 4.6 mph - N/A   Haze
4:39 PM 33.8 °F 29.6 °F 23.0 °F 65% 30.27 in 5.0 mi SE 4.6 mph - N/A   Haze
4:55 PM 33.8 °F 30.8 °F 23.0 °F 65% 30.27 in 5.0 mi ESE 3.5 mph - N/A   Haze
5:25 PM 33.8 °F 28.6 °F 23.0 °F 65% 30.27 in 5.0 mi SE 5.8 mph - N/A   Haze
5:50 PM 33.8 °F 29.6 °F 24.8 °F 70% 30.27 in 4.3 mi ESE 4.6 mph - N/A   Haze
5:51 PM 33.8 °F 29.6 °F 24.8 °F 70% 30.27 in 5.0 mi ESE 4.6 mph - N/A   Haze
5:53 PM 33.8 °F 28.6 °F 24.8 °F 70% 30.27 in 4.3 mi ESE 5.8 mph - N/A   Haze
5:54 PM 33.8 °F 28.6 °F 24.8 °F 70% 30.27 in 5.0 mi ESE 5.8 mph - N/A   Haze
5:55 PM 33.8 °F 28.6 °F 24.8 °F 70% 30.27 in 5.0 mi ESE 5.8 mph - N/A   Haze
5:56 PM 33.8 °F 28.6 °F 24.8 °F 70% 30.27 in 4.3 mi ESE 5.8 mph - N/A   Haze
6:25 PM 32.0 °F 27.5 °F 24.8 °F 75% 30.27 in 3.7 mi ESE 4.6 mph - N/A   Haze
6:55 PM 32.0 °F 27.5 °F 24.8 °F 75% 30.27 in 3.1 mi ESE 4.6 mph - N/A   Haze
7:00 PM 31 °F - 25 °F 72% 30.31 in 3 mi ESE 4.5 mph - -   Light Haze
7:25 PM 30.2 °F 25.4 °F 24.8 °F 80% 30.27 in 3.1 mi ESE 4.6 mph - N/A   Haze
7:33 PM 30.2 °F 25.4 °F 24.8 °F 80% 30.27 in - ESE 4.6 mph - N/A   Haze
7:34 PM 30.2 °F 25.4 °F 24.8 °F 80% 30.27 in 3.1 mi ESE 4.6 mph - N/A   Haze
7:48 PM 30.2 °F 25.4 °F 24.8 °F 80% 30.27 in 3.1 mi ESE 4.6 mph - N/A   Haze
7:55 PM 30.2 °F 24.3 °F 24.8 °F 80% 30.27 in 3.1 mi ESE 5.8 mph - N/A   Haze
7:58 PM 30.2 °F 24.3 °F 24.8 °F 80% 30.27 in 3.1 mi SE 5.8 mph - N/A   Haze
8:02 PM 30.2 °F 25.4 °F 24.8 °F 80% 30.27 in 3.1 mi ESE 4.6 mph - N/A   Haze
8:25 PM 30.2 °F 24.3 °F 24.8 °F 80% 30.27 in - SE 5.8 mph - N/A   Haze
8:55 PM 30.2 °F 24.3 °F 24.8 °F 80% 30.27 in 3.1 mi SE 5.8 mph - N/A   Haze
9:25 PM 28.4 °F 22.2 °F 24.8 °F 86% 30.27 in 3.1 mi SE 5.8 mph - N/A   Haze
9:52 PM 28.4 °F 21.2 °F 24.8 °F 86% 30.27 in 3.1 mi SSE 6.9 mph - N/A   Mist
9:55 PM 28.4 °F 21.2 °F 24.8 °F 86% 30.27 in 3.1 mi SSE 6.9 mph - N/A   Mist
10:00 PM 28 °F - 24 °F 80% 30.29 in 3 mi SSE 6.7 mph - -   Mist
10:25 PM 28.4 °F 22.2 °F 24.8 °F 86% 30.27 in 3.1 mi SSE 5.8 mph - N/A   Mist
10:55 PM 26.6 °F 20.0 °F 23.0 °F 86% 30.27 in 3.1 mi SSE 5.8 mph - N/A   Mist
11:25 PM 26.6 °F 21.2 °F 23.0 °F 86% 30.27 in 3.1 mi SSE 4.6 mph - N/A   Mist
11:55 PM 26.6 °F 20.0 °F 23.0 °F 86% 30.27 in 3.7 mi SSE 5.8 mph - N/A   Mist